Terminal Aerodrome Forecast
Issued by NWS

Home | Current Version | Previous Version | Graphics & Text | Print | Product List | Glossary On
Versions: 1 2 3 4 5 6 7 8 9 10 11 12
640
FTUS43 KICT 090523
TAFCNU
TAF
KCNU 090523Z 0906/1006 33004KT P6SM SKC
     FM090900 VRB03KT P6SM SKC
     FM091600 15006KT P6SM SCT110=

USA.gov is the U.S. government's official web portal to all federal, state and local government web resources and services.